sensor_id;sensor_type;location;lat;lon;timestamp;temperature;humidity
16392;DHT22;8305;-33.882;151.134;2023-04-03T00:01:45;19.80;99.90
16392;DHT22;8305;-33.882;151.134;2023-04-03T00:04:16;19.60;99.90
16392;DHT22;8305;-33.882;151.134;2023-04-03T00:06:49;19.60;99.90
16392;DHT22;8305;-33.882;151.134;2023-04-03T00:09:20;19.60;99.90
16392;DHT22;8305;-33.882;151.134;2023-04-03T00:11:51;19.60;99.90
16392;DHT22;8305;-33.882;151.134;2023-04-03T00:14:22;19.60;99.90
16392;DHT22;8305;-33.882;151.134;2023-04-03T00:16:53;19.50;99.90
16392;DHT22;8305;-33.882;151.134;2023-04-03T00:19:24;19.40;99.90
16392;DHT22;8305;-33.882;151.134;2023-04-03T00:21:57;19.40;99.90
16392;DHT22;8305;-33.882;151.134;2023-04-03T00:24:28;19.40;99.90
16392;DHT22;8305;-33.882;151.134;2023-04-03T00:26:59;19.40;99.90
16392;DHT22;8305;-33.882;151.134;2023-04-03T00:29:30;19.40;99.90
16392;DHT22;8305;-33.882;151.134;2023-04-03T00:32:01;19.50;99.90
16392;DHT22;8305;-33.882;151.134;2023-04-03T00:34:33;19.60;99.90
16392;DHT22;8305;-33.882;151.134;2023-04-03T00:37:06;19.60;99.90
16392;DHT22;8305;-33.882;151.134;2023-04-03T00:39:37;19.60;99.90
16392;DHT22;8305;-33.882;151.134;2023-04-03T00:42:08;19.70;99.90
16392;DHT22;8305;-33.882;151.134;2023-04-03T00:47:45;19.80;99.90
16392;DHT22;8305;-33.882;151.134;2023-04-03T00:50:16;19.90;99.90
16392;DHT22;8305;-33.882;151.134;2023-04-03T00:52:49;20.00;99.90
16392;DHT22;8305;-33.882;151.134;2023-04-03T00:55:21;20.00;99.90
16392;DHT22;8305;-33.882;151.134;2023-04-03T00:57:53;20.10;99.90
16392;DHT22;8305;-33.882;151.134;2023-04-03T01:00:25;20.20;99.90
16392;DHT22;8305;-33.882;151.134;2023-04-03T01:02:57;20.20;99.90
16392;DHT22;8305;-33.882;151.134;2023-04-03T01:05:28;20.20;99.90
16392;DHT22;8305;-33.882;151.134;2023-04-03T01:08:01;20.20;99.90
16392;DHT22;8305;-33.882;151.134;2023-04-03T01:10:32;20.40;99.90
16392;DHT22;8305;-33.882;151.134;2023-04-03T01:13:20;20.40;99.90
16392;DHT22;8305;-33.882;151.134;2023-04-03T01:15:53;20.60;99.90
16392;DHT22;8305;-33.882;151.134;2023-04-03T01:18:25;20.60;99.90
16392;DHT22;8305;-33.882;151.134;2023-04-03T01:21:15;20.90;99.90
16392;DHT22;8305;-33.882;151.134;2023-04-03T01:24:05;20.80;99.90
16392;DHT22;8305;-33.882;151.134;2023-04-03T01:26:40;21.00;99.90
16392;DHT22;8305;-33.882;151.134;2023-04-03T01:29:11;21.30;99.90
16392;DHT22;8305;-33.882;151.134;2023-04-03T01:31:52;21.50;99.90
16392;DHT22;8305;-33.882;151.134;2023-04-03T01:34:23;21.80;99.90
16392;DHT22;8305;-33.882;151.134;2023-04-03T01:36:54;21.90;99.90
16392;DHT22;8305;-33.882;151.134;2023-04-03T01:39:25;22.20;99.90
16392;DHT22;8305;-33.882;151.134;2023-04-03T01:41:56;22.40;99.90
16392;DHT22;8305;-33.882;151.134;2023-04-03T01:44:28;22.40;99.90
16392;DHT22;8305;-33.882;151.134;2023-04-03T01:47:01;22.50;99.90
16392;DHT22;8305;-33.882;151.134;2023-04-03T01:49:32;22.80;99.90
16392;DHT22;8305;-33.882;151.134;2023-04-03T01:52:03;23.00;99.90
16392;DHT22;8305;-33.882;151.134;2023-04-03T01:54:34;23.10;99.90
16392;DHT22;8305;-33.882;151.134;2023-04-03T01:57:05;23.30;99.90
16392;DHT22;8305;-33.882;151.134;2023-04-03T01:59:36;23.40;99.90
16392;DHT22;8305;-33.882;151.134;2023-04-03T02:02:09;23.40;99.90
16392;DHT22;8305;-33.882;151.134;2023-04-03T02:04:42;23.60;99.90
16392;DHT22;8305;-33.882;151.134;2023-04-03T02:07:13;23.70;99.90
16392;DHT22;8305;-33.882;151.134;2023-04-03T02:09:44;23.60;99.90
16392;DHT22;8305;-33.882;151.134;2023-04-03T02:12:15;23.60;99.90
16392;DHT22;8305;-33.882;151.134;2023-04-03T02:14:46;23.50;99.90
16392;DHT22;8305;-33.882;151.134;2023-04-03T02:17:21;23.60;99.90
16392;DHT22;8305;-33.882;151.134;2023-04-03T02:19:52;23.60;99.90
16392;DHT22;8305;-33.882;151.134;2023-04-03T02:22:24;23.70;99.90
16392;DHT22;8305;-33.882;151.134;2023-04-03T02:24:55;23.70;99.90
16392;DHT22;8305;-33.882;151.134;2023-04-03T02:27:26;23.70;99.90
16392;DHT22;8305;-33.882;151.134;2023-04-03T02:29:57;23.80;99.90
16392;DHT22;8305;-33.882;151.134;2023-04-03T02:32:30;23.80;99.90
16392;DHT22;8305;-33.882;151.134;2023-04-03T02:35:01;23.80;99.90
16392;DHT22;8305;-33.882;151.134;2023-04-03T02:37:32;23.80;99.90
16392;DHT22;8305;-33.882;151.134;2023-04-03T02:40:04;23.80;99.90
16392;DHT22;8305;-33.882;151.134;2023-04-03T02:42:35;23.80;99.90
16392;DHT22;8305;-33.882;151.134;2023-04-03T02:45:07;23.80;99.90
16392;DHT22;8305;-33.882;151.134;2023-04-03T02:47:41;23.80;99.90
16392;DHT22;8305;-33.882;151.134;2023-04-03T02:50:12;23.90;99.90
16392;DHT22;8305;-33.882;151.134;2023-04-03T02:52:43;24.00;99.90
16392;DHT22;8305;-33.882;151.134;2023-04-03T02:55:15;24.10;99.90
16392;DHT22;8305;-33.882;151.134;2023-04-03T02:57:46;24.10;99.90
16392;DHT22;8305;-33.882;151.134;2023-04-03T03:00:18;24.00;99.90
16392;DHT22;8305;-33.882;151.134;2023-04-03T03:02:52;23.90;99.90
16392;DHT22;8305;-33.882;151.134;2023-04-03T03:05:23;23.90;99.90
16392;DHT22;8305;-33.882;151.134;2023-04-03T03:07:55;24.00;99.90
16392;DHT22;8305;-33.882;151.134;2023-04-03T03:10:26;24.00;99.90
16392;DHT22;8305;-33.882;151.134;2023-04-03T03:12:58;23.90;99.90
16392;DHT22;8305;-33.882;151.134;2023-04-03T03:15:29;23.80;99.90
16392;DHT22;8305;-33.882;151.134;2023-04-03T03:18:02;23.80;99.90
16392;DHT22;8305;-33.882;151.134;2023-04-03T03:20:33;23.70;99.90
16392;DHT22;8305;-33.882;151.134;2023-04-03T03:23:04;23.40;99.90
16392;DHT22;8305;-33.882;151.134;2023-04-03T03:25:38;23.10;99.90
16392;DHT22;8305;-33.882;151.134;2023-04-03T03:28:10;23.20;99.90
16392;DHT22;8305;-33.882;151.134;2023-04-03T03:30:41;23.20;99.90
16392;DHT22;8305;-33.882;151.134;2023-04-03T03:33:14;23.10;99.90
16392;DHT22;8305;-33.882;151.134;2023-04-03T03:35:45;22.80;99.90
16392;DHT22;8305;-33.882;151.134;2023-04-03T03:38:17;22.60;99.90
16392;DHT22;8305;-33.882;151.134;2023-04-03T03:40:49;22.60;99.90
16392;DHT22;8305;-33.882;151.134;2023-04-03T03:43:20;22.60;99.90
16392;DHT22;8305;-33.882;151.134;2023-04-03T03:45:53;22.70;99.90
16392;DHT22;8305;-33.882;151.134;2023-04-03T03:48:28;22.90;99.90
16392;DHT22;8305;-33.882;151.134;2023-04-03T03:50:59;23.00;99.90
16392;DHT22;8305;-33.882;151.134;2023-04-03T03:53:30;23.20;99.90
16392;DHT22;8305;-33.882;151.134;2023-04-03T03:56:01;23.10;99.90
16392;DHT22;8305;-33.882;151.134;2023-04-03T03:58:32;22.90;99.90
16392;DHT22;8305;-33.882;151.134;2023-04-03T04:01:03;22.70;99.90
16392;DHT22;8305;-33.882;151.134;2023-04-03T04:03:38;22.60;99.90
16392;DHT22;8305;-33.882;151.134;2023-04-03T04:06:09;22.50;99.90
16392;DHT22;8305;-33.882;151.134;2023-04-03T04:08:40;22.50;99.90
16392;DHT22;8305;-33.882;151.134;2023-04-03T04:11:11;22.70;99.90
16392;DHT22;8305;-33.882;151.134;2023-04-03T04:13:42;22.80;99.90
16392;DHT22;8305;-33.882;151.134;2023-04-03T04:16:13;22.90;99.90
16392;DHT22;8305;-33.882;151.134;2023-04-03T04:18:46;23.00;99.90
16392;DHT22;8305;-33.882;151.134;2023-04-03T04:21:17;23.00;99.90
16392;DHT22;8305;-33.882;151.134;2023-04-03T04:23:49;23.10;99.90
16392;DHT22;8305;-33.882;151.134;2023-04-03T04:26:20;23.30;99.90
16392;DHT22;8305;-33.882;151.134;2023-04-03T04:28:52;23.40;99.90
16392;DHT22;8305;-33.882;151.134;2023-04-03T04:31:23;23.40;99.90
16392;DHT22;8305;-33.882;151.134;2023-04-03T04:33:57;23.30;99.90
16392;DHT22;8305;-33.882;151.134;2023-04-03T04:36:29;23.30;99.90
16392;DHT22;8305;-33.882;151.134;2023-04-03T04:39:00;23.10;99.90
16392;DHT22;8305;-33.882;151.134;2023-04-03T04:41:31;22.90;99.90
16392;DHT22;8305;-33.882;151.134;2023-04-03T04:44:02;22.90;99.90
16392;DHT22;8305;-33.882;151.134;2023-04-03T04:46:33;22.90;99.90
16392;DHT22;8305;-33.882;151.134;2023-04-03T04:49:06;22.90;99.90
16392;DHT22;8305;-33.882;151.134;2023-04-03T04:51:37;23.00;99.90
16392;DHT22;8305;-33.882;151.134;2023-04-03T04:54:08;23.00;99.90
16392;DHT22;8305;-33.882;151.134;2023-04-03T04:56:39;23.10;99.90
16392;DHT22;8305;-33.882;151.134;2023-04-03T04:59:10;23.10;99.90
16392;DHT22;8305;-33.882;151.134;2023-04-03T05:01:42;23.10;99.90
16392;DHT22;8305;-33.882;151.134;2023-04-03T05:04:16;23.00;99.90
16392;DHT22;8305;-33.882;151.134;2023-04-03T05:06:47;23.00;99.90
16392;DHT22;8305;-33.882;151.134;2023-04-03T05:09:18;23.00;99.90
16392;DHT22;8305;-33.882;151.134;2023-04-03T05:11:50;23.10;99.90
16392;DHT22;8305;-33.882;151.134;2023-04-03T05:14:21;23.00;99.90
16392;DHT22;8305;-33.882;151.134;2023-04-03T05:16:52;22.90;99.90
16392;DHT22;8305;-33.882;151.134;2023-04-03T05:19:25;22.80;99.90
16392;DHT22;8305;-33.882;151.134;2023-04-03T05:21:56;22.90;99.90
16392;DHT22;8305;-33.882;151.134;2023-04-03T05:24:27;22.70;99.90
16392;DHT22;8305;-33.882;151.134;2023-04-03T05:26:59;22.60;99.90
16392;DHT22;8305;-33.882;151.134;2023-04-03T05:29:30;22.40;99.90
16392;DHT22;8305;-33.882;151.134;2023-04-03T05:32:01;22.30;99.90
16392;DHT22;8305;-33.882;151.134;2023-04-03T05:34:34;22.20;99.90
16392;DHT22;8305;-33.882;151.134;2023-04-03T05:37:05;22.20;99.90
16392;DHT22;8305;-33.882;151.134;2023-04-03T05:39:36;22.20;99.90
16392;DHT22;8305;-33.882;151.134;2023-04-03T05:42:08;22.20;99.90
16392;DHT22;8305;-33.882;151.134;2023-04-03T05:44:40;22.10;99.90
16392;DHT22;8305;-33.882;151.134;2023-04-03T05:47:11;22.10;99.90
16392;DHT22;8305;-33.882;151.134;2023-04-03T05:49:44;22.00;99.90
16392;DHT22;8305;-33.882;151.134;2023-04-03T05:52:20;22.10;99.90
16392;DHT22;8305;-33.882;151.134;2023-04-03T05:54:52;22.20;99.90
16392;DHT22;8305;-33.882;151.134;2023-04-03T05:57:23;22.20;99.90
16392;DHT22;8305;-33.882;151.134;2023-04-03T05:59:54;22.30;99.90
16392;DHT22;8305;-33.882;151.134;2023-04-03T06:02:26;22.40;99.90
16392;DHT22;8305;-33.882;151.134;2023-04-03T06:04:59;22.50;99.90
16392;DHT22;8305;-33.882;151.134;2023-04-03T06:07:30;22.50;99.90
16392;DHT22;8305;-33.882;151.134;2023-04-03T06:10:02;22.50;99.90
16392;DHT22;8305;-33.882;151.134;2023-04-03T06:12:33;22.40;99.90
16392;DHT22;8305;-33.882;151.134;2023-04-03T06:15:04;22.40;99.90
16392;DHT22;8305;-33.882;151.134;2023-04-03T06:17:36;22.20;99.90
16392;DHT22;8305;-33.882;151.134;2023-04-03T06:20:10;22.00;99.90
16392;DHT22;8305;-33.882;151.134;2023-04-03T06:22:41;21.80;99.90
16392;DHT22;8305;-33.882;151.134;2023-04-03T06:25:12;21.60;99.90
16392;DHT22;8305;-33.882;151.134;2023-04-03T06:27:45;21.50;99.90
16392;DHT22;8305;-33.882;151.134;2023-04-03T06:30:17;21.40;99.90
16392;DHT22;8305;-33.882;151.134;2023-04-03T06:32:50;21.30;99.90
16392;DHT22;8305;-33.882;151.134;2023-04-03T06:35:23;21.30;99.90
16392;DHT22;8305;-33.882;151.134;2023-04-03T06:37:54;21.20;99.90
16392;DHT22;8305;-33.882;151.134;2023-04-03T06:40:26;21.30;99.90
16392;DHT22;8305;-33.882;151.134;2023-04-03T06:42:57;21.30;99.90
16392;DHT22;8305;-33.882;151.134;2023-04-03T06:45:28;21.30;99.90
16392;DHT22;8305;-33.882;151.134;2023-04-03T06:47:59;21.40;99.90
16392;DHT22;8305;-33.882;151.134;2023-04-03T06:50:32;21.40;99.90
16392;DHT22;8305;-33.882;151.134;2023-04-03T06:53:03;21.40;99.90
16392;DHT22;8305;-33.882;151.134;2023-04-03T06:55:35;21.50;99.90
16392;DHT22;8305;-33.882;151.134;2023-04-03T06:58:06;21.50;99.90
16392;DHT22;8305;-33.882;151.134;2023-04-03T07:00:37;21.40;99.90
16392;DHT22;8305;-33.882;151.134;2023-04-03T07:03:08;21.30;99.90
16392;DHT22;8305;-33.882;151.134;2023-04-03T07:05:41;21.30;99.90
16392;DHT22;8305;-33.882;151.134;2023-04-03T07:08:12;21.20;99.90
16392;DHT22;8305;-33.882;151.134;2023-04-03T07:10:43;21.20;99.90
16392;DHT22;8305;-33.882;151.134;2023-04-03T07:13:14;21.20;99.90
16392;DHT22;8305;-33.882;151.134;2023-04-03T07:15:46;21.10;99.90
16392;DHT22;8305;-33.882;151.134;2023-04-03T07:18:18;21.10;99.90
16392;DHT22;8305;-33.882;151.134;2023-04-03T07:20:51;21.00;99.90
16392;DHT22;8305;-33.882;151.134;2023-04-03T07:23:23;21.00;99.90
16392;DHT22;8305;-33.882;151.134;2023-04-03T07:25:54;21.00;99.90
16392;DHT22;8305;-33.882;151.134;2023-04-03T07:28:25;20.90;99.90
16392;DHT22;8305;-33.882;151.134;2023-04-03T07:31:02;20.90;99.90
16392;DHT22;8305;-33.882;151.134;2023-04-03T07:33:36;20.90;99.90
16392;DHT22;8305;-33.882;151.134;2023-04-03T07:36:13;20.80;99.90
16392;DHT22;8305;-33.882;151.134;2023-04-03T07:38:45;20.80;99.90
16392;DHT22;8305;-33.882;151.134;2023-04-03T07:41:17;20.70;99.90
16392;DHT22;8305;-33.882;151.134;2023-04-03T07:43:50;20.70;99.90
16392;DHT22;8305;-33.882;151.134;2023-04-03T07:46:21;20.70;99.90
16392;DHT22;8305;-33.882;151.134;2023-04-03T07:48:52;20.70;99.90
16392;DHT22;8305;-33.882;151.134;2023-04-03T07:51:25;20.60;99.90
16392;DHT22;8305;-33.882;151.134;2023-04-03T07:53:57;20.60;99.90
16392;DHT22;8305;-33.882;151.134;2023-04-03T07:56:28;20.50;99.90
16392;DHT22;8305;-33.882;151.134;2023-04-03T07:58:59;20.50;99.90
16392;DHT22;8305;-33.882;151.134;2023-04-03T08:01:32;20.40;99.90
16392;DHT22;8305;-33.882;151.134;2023-04-03T08:04:03;20.40;99.90
16392;DHT22;8305;-33.882;151.134;2023-04-03T08:06:37;20.30;99.90
16392;DHT22;8305;-33.882;151.134;2023-04-03T08:09:08;20.40;99.90
16392;DHT22;8305;-33.882;151.134;2023-04-03T08:11:40;20.30;99.90
16392;DHT22;8305;-33.882;151.134;2023-04-03T08:14:12;20.20;99.90
16392;DHT22;8305;-33.882;151.134;2023-04-03T08:16:44;20.20;99.90
16392;DHT22;8305;-33.882;151.134;2023-04-03T08:19:16;20.10;99.90
16392;DHT22;8305;-33.882;151.134;2023-04-03T08:21:49;20.10;99.90
16392;DHT22;8305;-33.882;151.134;2023-04-03T08:24:20;20.10;99.90
16392;DHT22;8305;-33.882;151.134;2023-04-03T08:26:51;20.10;99.90
16392;DHT22;8305;-33.882;151.134;2023-04-03T08:29:25;20.00;99.90
16392;DHT22;8305;-33.882;151.134;2023-04-03T08:31:57;20.00;99.90
16392;DHT22;8305;-33.882;151.134;2023-04-03T08:34:28;19.90;99.90
16392;DHT22;8305;-33.882;151.134;2023-04-03T08:37:02;19.90;99.90
16392;DHT22;8305;-33.882;151.134;2023-04-03T08:39:33;19.90;99.90
16392;DHT22;8305;-33.882;151.134;2023-04-03T08:42:10;19.90;99.90
16392;DHT22;8305;-33.882;151.134;2023-04-03T08:44:48;19.80;99.90
16392;DHT22;8305;-33.882;151.134;2023-04-03T08:47:26;19.80;99.90
16392;DHT22;8305;-33.882;151.134;2023-04-03T08:50:00;19.80;99.90
16392;DHT22;8305;-33.882;151.134;2023-04-03T08:52:38;19.90;99.90
16392;DHT22;8305;-33.882;151.134;2023-04-03T08:55:19;19.90;99.90
16392;DHT22;8305;-33.882;151.134;2023-04-03T08:57:56;19.90;99.90
16392;DHT22;8305;-33.882;151.134;2023-04-03T09:00:32;19.90;99.90
16392;DHT22;8305;-33.882;151.134;2023-04-03T09:03:10;19.90;99.90
16392;DHT22;8305;-33.882;151.134;2023-04-03T09:05:46;19.90;99.90
16392;DHT22;8305;-33.882;151.134;2023-04-03T09:08:26;20.00;99.90
16392;DHT22;8305;-33.882;151.134;2023-04-03T09:11:09;20.00;99.90
16392;DHT22;8305;-33.882;151.134;2023-04-03T09:13:47;20.10;99.90
16392;DHT22;8305;-33.882;151.134;2023-04-03T09:16:32;20.10;99.90
16392;DHT22;8305;-33.882;151.134;2023-04-03T09:19:13;20.10;99.90
16392;DHT22;8305;-33.882;151.134;2023-04-03T09:21:47;20.20;99.90
16392;DHT22;8305;-33.882;151.134;2023-04-03T09:24:21;20.20;99.90
16392;DHT22;8305;-33.882;151.134;2023-04-03T09:26:56;20.20;99.90
16392;DHT22;8305;-33.882;151.134;2023-04-03T09:29:39;20.20;99.90
16392;DHT22;8305;-33.882;151.134;2023-04-03T09:32:25;20.20;99.90
16392;DHT22;8305;-33.882;151.134;2023-04-03T09:34:59;20.20;99.90
16392;DHT22;8305;-33.882;151.134;2023-04-03T09:37:38;20.20;99.90
16392;DHT22;8305;-33.882;151.134;2023-04-03T09:40:34;20.10;99.90
16392;DHT22;8305;-33.882;151.134;2023-04-03T09:43:24;20.10;99.90
16392;DHT22;8305;-33.882;151.134;2023-04-03T09:45:56;20.10;99.90
16392;DHT22;8305;-33.882;151.134;2023-04-03T09:48:52;20.10;99.90
16392;DHT22;8305;-33.882;151.134;2023-04-03T09:51:27;20.10;99.90
16392;DHT22;8305;-33.882;151.134;2023-04-03T09:53:59;20.10;99.90
16392;DHT22;8305;-33.882;151.134;2023-04-03T09:56:32;20.00;99.90
16392;DHT22;8305;-33.882;151.134;2023-04-03T09:59:14;20.10;99.90
16392;DHT22;8305;-33.882;151.134;2023-04-03T10:01:58;20.10;99.90
16392;DHT22;8305;-33.882;151.134;2023-04-03T10:04:39;20.00;99.90
16392;DHT22;8305;-33.882;151.134;2023-04-03T10:07:29;20.00;99.90
16392;DHT22;8305;-33.882;151.134;2023-04-03T10:10:01;20.10;99.90
16392;DHT22;8305;-33.882;151.134;2023-04-03T10:12:35;20.10;99.90
16392;DHT22;8305;-33.882;151.134;2023-04-03T10:15:13;20.10;99.90
16392;DHT22;8305;-33.882;151.134;2023-04-03T10:17:53;20.10;99.90
16392;DHT22;8305;-33.882;151.134;2023-04-03T10:20:33;20.10;99.90
16392;DHT22;8305;-33.882;151.134;2023-04-03T10:23:17;20.10;99.90
16392;DHT22;8305;-33.882;151.134;2023-04-03T10:25:58;20.10;99.90
16392;DHT22;8305;-33.882;151.134;2023-04-03T10:28:38;20.10;99.90
16392;DHT22;8305;-33.882;151.134;2023-04-03T10:31:17;20.10;99.90
16392;DHT22;8305;-33.882;151.134;2023-04-03T10:34:00;20.10;99.90
16392;DHT22;8305;-33.882;151.134;2023-04-03T10:36:41;20.10;99.90
16392;DHT22;8305;-33.882;151.134;2023-04-03T10:39:20;20.10;99.90
16392;DHT22;8305;-33.882;151.134;2023-04-03T10:42:03;20.00;99.90
16392;DHT22;8305;-33.882;151.134;2023-04-03T10:47:39;19.90;99.90
16392;DHT22;8305;-33.882;151.134;2023-04-03T10:50:27;19.90;99.90
16392;DHT22;8305;-33.882;151.134;2023-04-03T10:53:04;19.80;99.90
16392;DHT22;8305;-33.882;151.134;2023-04-03T10:55:41;19.80;99.90
16392;DHT22;8305;-33.882;151.134;2023-04-03T10:58:20;19.70;99.90
16392;DHT22;8305;-33.882;151.134;2023-04-03T11:00:57;19.70;99.90
16392;DHT22;8305;-33.882;151.134;2023-04-03T11:03:34;19.70;99.90
16392;DHT22;8305;-33.882;151.134;2023-04-03T11:06:11;19.60;99.90
16392;DHT22;8305;-33.882;151.134;2023-04-03T11:08:48;19.50;99.90
16392;DHT22;8305;-33.882;151.134;2023-04-03T11:11:27;19.50;99.90
16392;DHT22;8305;-33.882;151.134;2023-04-03T11:14:03;19.40;99.90
16392;DHT22;8305;-33.882;151.134;2023-04-03T11:16:41;19.30;99.90
16392;DHT22;8305;-33.882;151.134;2023-04-03T11:19:18;19.20;99.90
16392;DHT22;8305;-33.882;151.134;2023-04-03T11:21:56;19.20;99.90
16392;DHT22;8305;-33.882;151.134;2023-04-03T11:24:29;19.10;99.90
16392;DHT22;8305;-33.882;151.134;2023-04-03T11:27:03;19.10;99.90
16392;DHT22;8305;-33.882;151.134;2023-04-03T11:29:38;19.00;99.90
16392;DHT22;8305;-33.882;151.134;2023-04-03T11:32:32;19.00;99.90
16392;DHT22;8305;-33.882;151.134;2023-04-03T11:35:07;18.90;99.90
16392;DHT22;8305;-33.882;151.134;2023-04-03T11:37:40;18.90;99.90
16392;DHT22;8305;-33.882;151.134;2023-04-03T11:40:22;18.80;99.90
16392;DHT22;8305;-33.882;151.134;2023-04-03T11:43:06;18.80;99.90
16392;DHT22;8305;-33.882;151.134;2023-04-03T11:45:54;18.80;99.90
16392;DHT22;8305;-33.882;151.134;2023-04-03T11:48:52;18.80;99.90
16392;DHT22;8305;-33.882;151.134;2023-04-03T11:51:43;18.70;99.90
16392;DHT22;8305;-33.882;151.134;2023-04-03T11:54:45;18.70;99.90
16392;DHT22;8305;-33.882;151.134;2023-04-03T12:00:54;18.70;99.90
16392;DHT22;8305;-33.882;151.134;2023-04-03T12:04:05;18.60;99.90
16392;DHT22;8305;-33.882;151.134;2023-04-03T12:07:00;18.60;99.90
16392;DHT22;8305;-33.882;151.134;2023-04-03T12:09:58;18.60;99.90
16392;DHT22;8305;-33.882;151.134;2023-04-03T12:12:37;18.60;99.90
16392;DHT22;8305;-33.882;151.134;2023-04-03T12:18:56;18.50;99.90
16392;DHT22;8305;-33.882;151.134;2023-04-03T12:24:33;18.40;99.90
16392;DHT22;8305;-33.882;151.134;2023-04-03T12:27:22;18.40;99.90
16392;DHT22;8305;-33.882;151.134;2023-04-03T12:30:06;18.40;99.90
16392;DHT22;8305;-33.882;151.134;2023-04-03T12:33:12;18.40;99.90
16392;DHT22;8305;-33.882;151.134;2023-04-03T12:35:57;18.30;99.90
16392;DHT22;8305;-33.882;151.134;2023-04-03T12:41:38;18.30;99.90
16392;DHT22;8305;-33.882;151.134;2023-04-03T12:44:26;18.20;99.90
16392;DHT22;8305;-33.882;151.134;2023-04-03T12:47:22;18.20;99.90
16392;DHT22;8305;-33.882;151.134;2023-04-03T12:49:54;18.20;99.90
16392;DHT22;8305;-33.882;151.134;2023-04-03T12:52:36;18.20;99.90
16392;DHT22;8305;-33.882;151.134;2023-04-03T12:55:16;18.10;99.90
16392;DHT22;8305;-33.882;151.134;2023-04-03T12:57:50;18.10;99.90
16392;DHT22;8305;-33.882;151.134;2023-04-03T13:00:27;18.10;99.90
16392;DHT22;8305;-33.882;151.134;2023-04-03T13:03:00;18.10;99.90
16392;DHT22;8305;-33.882;151.134;2023-04-03T13:05:32;18.10;99.90
16392;DHT22;8305;-33.882;151.134;2023-04-03T13:08:05;18.10;99.90
16392;DHT22;8305;-33.882;151.134;2023-04-03T13:10:51;18.10;99.90
16392;DHT22;8305;-33.882;151.134;2023-04-03T13:13:25;18.00;99.90
16392;DHT22;8305;-33.882;151.134;2023-04-03T13:15:56;18.00;99.90
16392;DHT22;8305;-33.882;151.134;2023-04-03T13:18:30;18.00;99.90
16392;DHT22;8305;-33.882;151.134;2023-04-03T13:21:04;18.00;99.90
16392;DHT22;8305;-33.882;151.134;2023-04-03T13:23:38;18.00;99.90
16392;DHT22;8305;-33.882;151.134;2023-04-03T13:26:11;18.00;99.90
16392;DHT22;8305;-33.882;151.134;2023-04-03T13:28:45;18.00;99.90
16392;DHT22;8305;-33.882;151.134;2023-04-03T13:31:23;18.00;99.90
16392;DHT22;8305;-33.882;151.134;2023-04-03T13:33:58;18.00;99.90
16392;DHT22;8305;-33.882;151.134;2023-04-03T13:36:33;18.00;99.90
16392;DHT22;8305;-33.882;151.134;2023-04-03T13:39:06;18.00;99.90
16392;DHT22;8305;-33.882;151.134;2023-04-03T13:41:39;18.00;99.90
16392;DHT22;8305;-33.882;151.134;2023-04-03T13:44:32;18.00;99.90
16392;DHT22;8305;-33.882;151.134;2023-04-03T13:47:18;18.00;99.90
16392;DHT22;8305;-33.882;151.134;2023-04-03T13:50:02;18.00;99.90
16392;DHT22;8305;-33.882;151.134;2023-04-03T13:52:39;17.90;99.90
16392;DHT22;8305;-33.882;151.134;2023-04-03T13:55:19;17.90;99.90
16392;DHT22;8305;-33.882;151.134;2023-04-03T13:57:53;17.90;99.90
16392;DHT22;8305;-33.882;151.134;2023-04-03T14:00:39;17.90;99.90
16392;DHT22;8305;-33.882;151.134;2023-04-03T14:03:22;17.90;99.90
16392;DHT22;8305;-33.882;151.134;2023-04-03T14:05:55;17.80;99.90
16392;DHT22;8305;-33.882;151.134;2023-04-03T14:08:46;17.80;99.90
16392;DHT22;8305;-33.882;151.134;2023-04-03T14:11:19;17.80;99.90
16392;DHT22;8305;-33.882;151.134;2023-04-03T14:13:52;17.70;99.90
16392;DHT22;8305;-33.882;151.134;2023-04-03T14:16:30;17.70;99.90
16392;DHT22;8305;-33.882;151.134;2023-04-03T14:19:02;17.70;99.90
16392;DHT22;8305;-33.882;151.134;2023-04-03T14:21:33;17.60;99.90
16392;DHT22;8305;-33.882;151.134;2023-04-03T14:24:05;17.60;99.90
16392;DHT22;8305;-33.882;151.134;2023-04-03T14:26:36;17.60;99.90
16392;DHT22;8305;-33.882;151.134;2023-04-03T14:29:09;17.50;99.90
16392;DHT22;8305;-33.882;151.134;2023-04-03T14:31:43;17.50;99.90
16392;DHT22;8305;-33.882;151.134;2023-04-03T14:34:15;17.50;99.90
16392;DHT22;8305;-33.882;151.134;2023-04-03T14:36:46;17.40;99.90
16392;DHT22;8305;-33.882;151.134;2023-04-03T14:39:18;17.40;99.90
16392;DHT22;8305;-33.882;151.134;2023-04-03T14:41:49;17.40;99.90
16392;DHT22;8305;-33.882;151.134;2023-04-03T14:44:20;17.40;99.90
16392;DHT22;8305;-33.882;151.134;2023-04-03T14:46:53;17.40;99.90
16392;DHT22;8305;-33.882;151.134;2023-04-03T14:49:26;17.50;99.90
16392;DHT22;8305;-33.882;151.134;2023-04-03T14:51:58;17.50;99.90
16392;DHT22;8305;-33.882;151.134;2023-04-03T14:54:32;17.50;99.90
16392;DHT22;8305;-33.882;151.134;2023-04-03T14:57:05;17.50;99.90
16392;DHT22;8305;-33.882;151.134;2023-04-03T14:59:39;17.50;99.90
16392;DHT22;8305;-33.882;151.134;2023-04-03T15:02:28;17.60;99.90
16392;DHT22;8305;-33.882;151.134;2023-04-03T15:05:02;17.60;99.90
16392;DHT22;8305;-33.882;151.134;2023-04-03T15:07:35;17.60;99.90
16392;DHT22;8305;-33.882;151.134;2023-04-03T15:10:18;17.60;99.90
16392;DHT22;8305;-33.882;151.134;2023-04-03T15:12:49;17.60;99.90
16392;DHT22;8305;-33.882;151.134;2023-04-03T15:15:21;17.50;99.90
16392;DHT22;8305;-33.882;151.134;2023-04-03T15:17:55;17.50;99.90
16392;DHT22;8305;-33.882;151.134;2023-04-03T15:20:27;17.50;99.90
16392;DHT22;8305;-33.882;151.134;2023-04-03T15:22:58;17.40;99.90
16392;DHT22;8305;-33.882;151.134;2023-04-03T15:25:30;17.40;99.90
16392;DHT22;8305;-33.882;151.134;2023-04-03T15:28:02;17.40;99.90
16392;DHT22;8305;-33.882;151.134;2023-04-03T15:30:33;17.30;99.90
16392;DHT22;8305;-33.882;151.134;2023-04-03T15:33:09;17.40;99.90
16392;DHT22;8305;-33.882;151.134;2023-04-03T15:35:40;17.30;99.90
16392;DHT22;8305;-33.882;151.134;2023-04-03T15:38:11;17.30;99.90
16392;DHT22;8305;-33.882;151.134;2023-04-03T15:40:42;17.20;99.90
16392;DHT22;8305;-33.882;151.134;2023-04-03T15:43:15;17.20;99.90
16392;DHT22;8305;-33.882;151.134;2023-04-03T15:45:46;17.10;99.90
16392;DHT22;8305;-33.882;151.134;2023-04-03T15:48:19;17.10;99.90
16392;DHT22;8305;-33.882;151.134;2023-04-03T15:50:50;17.10;99.90
16392;DHT22;8305;-33.882;151.134;2023-04-03T15:53:21;17.10;99.90
16392;DHT22;8305;-33.882;151.134;2023-04-03T15:55:52;17.10;99.90
16392;DHT22;8305;-33.882;151.134;2023-04-03T15:58:24;17.10;99.90
16392;DHT22;8305;-33.882;151.134;2023-04-03T16:00:55;17.10;99.90
16392;DHT22;8305;-33.882;151.134;2023-04-03T16:03:28;17.10;99.90
16392;DHT22;8305;-33.882;151.134;2023-04-03T16:05:59;17.10;99.90
16392;DHT22;8305;-33.882;151.134;2023-04-03T16:08:31;17.10;99.90